Time;durP1;ratioP1;P1;durP2;ratioP2;P2;SDS_P1;SDS_P2;PMS_P1;PMS_P2;Temp;Humidity;BMP_temperature;BMP_pressure;BME280_temperature;BME280_humidity;BME280_pressure;Samples;Min_cycle;Max_cycle;Signal;HPM_P1;HPM_P2
2022/01/09 00:02:20;;;;;;;0.63;0.63;;;-3.10;99.90;;;;;;5259850;28;20044;-74
2022/01/09 00:04:56;;;;;;;0.47;0.47;;;-3.20;99.90;;;;;;5215829;28;20123;-72
2022/01/09 00:07:27;;;;;;;0.63;0.63;;;-3.10;99.90;;;;;;5258426;28;20677;-73
2022/01/09 00:09:59;;;;;;;0.50;0.50;;;-3.00;99.90;;;;;;5261407;28;20066;-73
2022/01/09 00:12:33;;;;;;;0.83;0.83;;;-3.20;99.90;;;;;;5255711;28;20214;-73
2022/01/09 00:15:07;;;;;;;0.70;0.70;;;-3.30;99.90;;;;;;5258993;28;20036;-73
2022/01/09 00:17:43;;;;;;;0.97;0.97;;;-3.30;99.90;;;;;;5257117;28;20027;-73
2022/01/09 00:20:20;;;;;;;0.40;0.40;;;-3.30;99.90;;;;;;5260652;28;20031;-73
2022/01/09 00:22:54;;;;;;;0.60;0.60;;;-3.30;99.90;;;;;;5259204;28;20154;-75
2022/01/09 00:25:28;;;;;;;0.47;0.47;;;-3.40;99.90;;;;;;5257946;28;20345;-73
2022/01/09 00:28:02;;;;;;;0.43;0.43;;;-3.40;99.90;;;;;;5259124;28;20100;-73
2022/01/09 00:30:36;;;;;;;0.60;0.60;;;-3.50;99.90;;;;;;5256468;28;20071;-74
2022/01/09 00:33:11;;;;;;;0.73;0.73;;;-3.50;99.90;;;;;;5261052;28;20035;-73
2022/01/09 00:35:44;;;;;;;0.40;0.40;;;-3.50;99.90;;;;;;5256401;28;20043;-72
2022/01/09 00:38:19;;;;;;;0.40;0.40;;;-3.50;99.90;;;;;;5260480;28;20050;-74
2022/01/09 00:40:52;;;;;;;0.73;0.73;;;-3.60;99.90;;;;;;5242403;28;20284;-73
2022/01/09 00:43:23;;;;;;;0.77;0.77;;;-3.60;99.90;;;;;;5255463;28;20458;-72
2022/01/09 00:45:54;;;;;;;0.40;0.40;;;-3.50;99.90;;;;;;5243430;28;20456;-72
2022/01/09 00:48:27;;;;;;;0.43;0.43;;;-3.50;99.90;;;;;;5217701;28;20029;-73
2022/01/09 00:51:01;;;;;;;0.55;0.55;;;-3.50;99.90;;;;;;5219308;28;20025;-73
2022/01/09 00:53:32;;;;;;;0.65;0.65;;;-3.50;99.90;;;;;;5218868;28;20381;-73
2022/01/09 00:56:08;;;;;;;0.47;0.47;;;-3.60;99.90;;;;;;5213690;28;20040;-74
2022/01/09 00:58:42;;;;;;;0.50;0.50;;;-3.50;99.90;;;;;;5214560;28;20041;-72
2022/01/09 01:01:13;;;;;;;0.60;0.60;;;-3.40;99.90;;;;;;5212820;28;20021;-72
2022/01/09 01:03:47;;;;;;;0.50;0.50;;;-3.40;99.90;;;;;;5217918;28;20043;-72
2022/01/09 01:06:20;;;;;;;0.63;0.63;;;-3.30;99.90;;;;;;5254693;28;20079;-72
2022/01/09 01:08:54;;;;;;;0.55;0.55;;;-3.30;99.90;;;;;;5240455;28;20032;-72
2022/01/09 01:11:34;;;;;;;0.60;0.60;;;-3.30;99.90;;;;;;5257324;28;20044;-72
2022/01/09 01:14:09;;;;;;;0.47;0.47;;;-3.40;99.90;;;;;;5243834;28;20107;-72
2022/01/09 01:16:43;;;;;;;0.77;0.77;;;-3.40;99.90;;;;;;5257046;28;20333;-72
2022/01/09 01:19:19;;;;;;;1.10;1.10;;;-3.40;99.90;;;;;;5261282;28;20399;-72
2022/01/09 01:21:58;;;;;;;3.33;3.03;;;-3.50;99.90;;;;;;5242298;28;20044;-72
2022/01/09 01:24:35;;;;;;;0.40;0.40;;;-3.60;99.90;;;;;;5261450;28;20062;-72
2022/01/09 01:27:06;;;;;;;0.50;0.50;;;-3.70;99.90;;;;;;5257606;28;20058;-72
2022/01/09 01:29:40;;;;;;;0.50;0.50;;;-3.80;99.90;;;;;;5256316;28;20039;-73
2022/01/09 01:32:14;;;;;;;0.82;0.82;;;-3.90;99.90;;;;;;5260612;28;20402;-72
2022/01/09 01:34:47;;;;;;;0.40;0.40;;;-3.90;99.90;;;;;;5256626;28;20055;-72
2022/01/09 01:37:18;;;;;;;0.60;0.60;;;-3.90;99.90;;;;;;5259505;28;20024;-72
2022/01/09 01:39:55;;;;;;;0.60;0.60;;;-3.90;99.90;;;;;;5238437;28;20057;-73
2022/01/09 01:42:26;;;;;;;0.40;0.40;;;-3.90;99.90;;;;;;5258966;28;20028;-73
2022/01/09 01:45:04;;;;;;;0.60;0.60;;;-3.80;99.90;;;;;;5262239;28;20024;-73
2022/01/09 01:47:38;;;;;;;0.47;0.47;;;-3.80;99.90;;;;;;5265539;28;20078;-73
2022/01/09 01:50:16;;;;;;;0.55;0.55;;;-3.90;99.90;;;;;;5265408;28;20059;-72
2022/01/09 01:52:51;;;;;;;0.60;0.60;;;-3.80;99.90;;;;;;5262252;28;20357;-72
2022/01/09 01:55:24;;;;;;;0.80;0.80;;;-3.90;99.90;;;;;;5263249;28;20063;-72
2022/01/09 01:57:55;;;;;;;0.60;0.60;;;-4.10;99.90;;;;;;5262712;28;20081;-72
2022/01/09 02:00:29;;;;;;;1.00;1.00;;;-4.10;99.90;;;;;;5262709;28;20286;-72
2022/01/09 02:03:00;;;;;;;0.47;0.47;;;-4.10;99.90;;;;;;5260866;28;20620;-72
2022/01/09 02:05:36;;;;;;;0.50;0.50;;;-4.10;99.90;;;;;;5231191;28;20052;-72
2022/01/09 02:08:13;;;;;;;0.43;0.43;;;-4.00;99.90;;;;;;5240844;28;20028;-74
2022/01/09 02:10:48;;;;;;;0.90;0.90;;;-3.80;99.90;;;;;;5245094;28;20107;-72
2022/01/09 02:13:20;;;;;;;1.10;1.03;;;-3.70;99.90;;;;;;5258282;28;20056;-72
2022/01/09 02:15:56;;;;;;;0.93;0.93;;;-3.40;99.90;;;;;;5248857;28;20063;-72
2022/01/09 02:18:28;;;;;;;0.67;0.67;;;-3.20;99.90;;;;;;5245247;28;20532;-72
2022/01/09 02:21:04;;;;;;;0.53;0.53;;;-3.10;99.90;;;;;;5259141;28;20299;-72
2022/01/09 02:23:45;;;;;;;0.57;0.57;;;-3.10;99.90;;;;;;5233186;28;20036;-72
2022/01/09 02:26:18;;;;;;;0.43;0.43;;;-3.20;99.90;;;;;;5250183;28;20330;-72
2022/01/09 02:28:55;;;;;;;0.57;0.57;;;-3.20;99.90;;;;;;5250047;28;20047;-72
2022/01/09 02:31:28;;;;;;;0.50;0.50;;;-3.30;99.90;;;;;;5249961;28;20032;-72
2022/01/09 02:33:59;;;;;;;0.60;0.60;;;-3.20;99.90;;;;;;5244694;28;20301;-72
2022/01/09 02:36:32;;;;;;;0.50;0.50;;;-3.30;99.90;;;;;;5242035;28;20056;-72
2022/01/09 02:39:07;;;;;;;0.50;0.50;;;-3.40;99.90;;;;;;5240843;28;20059;-72
2022/01/09 02:41:41;;;;;;;0.53;0.53;;;-3.30;99.90;;;;;;5245555;28;20047;-72
2022/01/09 02:44:12;;;;;;;2.42;2.03;;;-3.30;99.90;;;;;;5239851;28;20354;-72
2022/01/09 02:46:57;;;;;;;1.27;1.17;;;-2.90;99.90;;;;;;5230417;28;20267;-72
2022/01/09 02:49:29;;;;;;;2.37;1.70;;;-2.80;99.90;;;;;;5230806;28;20060;-72
2022/01/09 02:52:11;;;;;;;0.77;0.77;;;-2.70;99.90;;;;;;5246009;28;20070;-72
2022/01/09 02:57:37;;;;;;;0.67;0.67;;;-2.90;99.90;;;;;;5243122;28;20100;-71
2022/01/09 03:00:18;;;;;;;2.70;2.50;;;-3.10;99.90;;;;;;5266533;28;20099;-72
2022/01/09 03:02:49;;;;;;;0.50;0.50;;;-3.30;99.90;;;;;;5245063;28;20040;-72
2022/01/09 03:05:24;;;;;;;0.87;0.87;;;-3.40;99.90;;;;;;5258252;28;20242;-72
2022/01/09 03:07:56;;;;;;;0.50;0.50;;;-3.50;99.90;;;;;;5271330;28;20036;-72
2022/01/09 03:10:29;;;;;;;6.03;2.83;;;-3.50;99.90;;;;;;5261326;28;20024;-71
2022/01/09 03:13:00;;;;;;;0.43;0.43;;;-3.60;99.90;;;;;;5277558;28;20040;-72
2022/01/09 03:15:34;;;;;;;0.50;0.50;;;-3.70;99.90;;;;;;5259548;28;20362;-71
2022/01/09 03:18:12;;;;;;;0.50;0.50;;;-3.70;99.90;;;;;;5257873;28;20028;-71
2022/01/09 03:20:43;;;;;;;1.00;1.00;;;-3.70;99.90;;;;;;5261854;28;20050;-72
2022/01/09 03:23:19;;;;;;;2.60;2.40;;;-3.70;99.90;;;;;;5262289;28;20348;-72
2022/01/09 03:25:49;;;;;;;0.50;0.50;;;-3.80;99.90;;;;;;5254021;28;20036;-72
2022/01/09 03:28:24;;;;;;;0.57;0.57;;;-3.80;99.90;;;;;;5255717;28;20075;-72
2022/01/09 03:30:55;;;;;;;0.57;0.57;;;-3.70;99.90;;;;;;5262589;28;20237;-72
2022/01/09 03:33:32;;;;;;;0.50;0.50;;;-3.80;99.90;;;;;;5254437;28;20028;-72
2022/01/09 03:36:06;;;;;;;0.40;0.40;;;-3.80;99.90;;;;;;5255994;28;20551;-72
2022/01/09 03:38:37;;;;;;;;;;;-3.70;99.90;;;;;;5262955;28;20047;-72
2022/01/09 03:41:08;;;;;;;5.87;1.07;;;-3.70;99.90;;;;;;5244938;28;19912;-72
2022/01/09 03:43:39;;;;;;;0.60;0.60;;;-3.70;99.90;;;;;;5252807;28;20031;-72
2022/01/09 03:46:10;;;;;;;0.87;0.87;;;-3.80;99.90;;;;;;5230236;28;20043;-72
2022/01/09 03:48:43;;;;;;;0.47;0.47;;;-3.80;99.90;;;;;;5242777;28;20032;-72
2022/01/09 03:51:25;;;;;;;0.70;0.70;;;-3.90;99.90;;;;;;5249237;28;20036;-72
2022/01/09 03:54:06;;;;;;;0.67;0.67;;;-3.90;99.90;;;;;;5236758;28;20369;-73
2022/01/09 03:56:37;;;;;;;0.90;0.90;;;-4.00;99.90;;;;;;5234582;28;20397;-73
2022/01/09 03:59:07;;;;;;;0.63;0.63;;;-4.00;99.90;;;;;;5236204;28;20028;-72
2022/01/09 04:01:38;;;;;;;0.97;0.97;;;-4.00;99.90;;;;;;5237856;28;20029;-72
2022/01/09 04:04:15;;;;;;;1.47;1.43;;;-4.00;99.90;;;;;;5234455;28;20064;-71
2022/01/09 04:06:50;;;;;;;4.57;2.80;;;-4.00;99.90;;;;;;5213780;28;20053;-72
2022/01/09 04:09:37;;;;;;;0.60;0.60;;;-4.00;99.90;;;;;;5201911;28;20107;-72
2022/01/09 04:12:18;;;;;;;2.00;1.80;;;-3.90;99.90;;;;;;5217268;28;20151;-72
2022/01/09 04:14:55;;;;;;;1.27;1.20;;;-3.90;99.90;;;;;;5217405;28;20096;-72
2022/01/09 04:17:38;;;;;;;0.50;0.50;;;-3.90;99.90;;;;;;5220580;28;20315;-73
2022/01/09 04:20:10;;;;;;;1.25;1.25;;;-3.90;99.90;;;;;;5201568;28;20033;-73
2022/01/09 04:22:47;;;;;;;1.10;1.10;;;-3.90;99.90;;;;;;5219109;28;20324;-72
2022/01/09 04:25:24;;;;;;;1.83;1.73;;;-3.90;99.90;;;;;;5222184;28;20045;-73
2022/01/09 04:27:56;;;;;;;0.60;0.60;;;-3.90;99.90;;;;;;5223502;28;20188;-73
2022/01/09 04:30:37;;;;;;;0.60;0.60;;;-3.90;99.90;;;;;;5218563;28;20036;-73
2022/01/09 04:33:17;;;;;;;0.50;0.50;;;-3.90;99.90;;;;;;5220825;28;20048;-74
2022/01/09 04:35:48;;;;;;;0.73;0.73;;;-3.90;99.90;;;;;;5220321;28;20100;-73
2022/01/09 04:38:25;;;;;;;0.63;0.63;;;-4.00;99.90;;;;;;5218249;28;20065;-73
2022/01/09 04:41:06;;;;;;;0.80;0.80;;;-4.00;99.90;;;;;;5214689;28;20029;-73
2022/01/09 04:43:43;;;;;;;0.80;0.80;;;-4.10;99.90;;;;;;5218219;28;20040;-72
2022/01/09 04:46:20;;;;;;;0.67;0.67;;;-4.10;99.90;;;;;;5227631;28;20020;-72
2022/01/09 04:48:54;;;;;;;1.53;1.43;;;-4.10;99.90;;;;;;5245116;28;20035;-72
2022/01/09 04:51:29;;;;;;;0.68;0.68;;;-4.20;99.90;;;;;;5241204;28;20047;-72
2022/01/09 04:54:05;;;;;;;0.50;0.50;;;-4.20;99.90;;;;;;5238734;28;20103;-72
2022/01/09 04:56:42;;;;;;;0.60;0.60;;;-4.20;99.90;;;;;;5237836;28;20037;-72
2022/01/09 04:59:15;;;;;;;1.37;1.37;;;-4.10;99.90;;;;;;5238403;28;20203;-72
2022/01/09 05:01:46;;;;;;;0.40;0.40;;;-4.20;99.90;;;;;;5241340;28;20432;-72
2022/01/09 05:04:25;;;;;;;0.60;0.60;;;-4.20;99.90;;;;;;5231913;28;20032;-72
2022/01/09 05:07:01;;;;;;;0.53;0.53;;;-4.20;99.90;;;;;;5215573;28;20246;-72
2022/01/09 05:09:34;;;;;;;0.50;0.50;;;-4.30;99.90;;;;;;5202044;28;20272;-72
2022/01/09 05:12:11;;;;;;;0.40;0.40;;;-4.30;99.90;;;;;;5203368;28;20034;-72
2022/01/09 05:14:47;;;;;;;0.73;0.73;;;-4.30;99.90;;;;;;5208997;28;20334;-72
2022/01/09 05:17:17;;;;;;;0.50;0.50;;;-4.30;99.90;;;;;;5185387;28;20394;-72
2022/01/09 05:19:52;;;;;;;0.57;0.57;;;-4.30;99.90;;;;;;5219920;28;20029;-72
2022/01/09 05:22:31;;;;;;;1.27;1.27;;;-4.30;99.90;;;;;;5223228;28;20027;-72
2022/01/09 05:25:09;;;;;;;0.50;0.50;;;-4.30;99.90;;;;;;5223998;28;20297;-71
2022/01/09 05:27:44;;;;;;;0.50;0.50;;;-4.30;99.90;;;;;;5204047;28;20045;-71
2022/01/09 05:30:17;;;;;;;0.50;0.50;;;-4.30;99.90;;;;;;5204813;28;20052;-71
2022/01/09 05:32:50;;;;;;;0.67;0.67;;;-4.30;99.90;;;;;;5219266;28;20032;-71
2022/01/09 05:35:22;;;;;;;0.60;0.60;;;-4.30;99.90;;;;;;5222133;28;20029;-72
2022/01/09 05:37:53;;;;;;;1.03;1.03;;;-4.30;99.90;;;;;;5223042;28;20044;-71
2022/01/09 05:40:26;;;;;;;0.43;0.43;;;-4.40;99.90;;;;;;5223952;28;20033;-71
2022/01/09 05:43:03;;;;;;;1.27;1.27;;;-4.40;99.90;;;;;;5222240;28;20032;-71
2022/01/09 05:45:34;;;;;;;0.90;0.90;;;-4.40;99.90;;;;;;5228653;28;20289;-71
2022/01/09 05:48:08;;;;;;;1.27;1.27;;;-4.50;99.90;;;;;;5267847;28;20357;-71
2022/01/09 05:50:39;;;;;;;0.40;0.40;;;-4.50;99.90;;;;;;5228522;28;20043;-72
2022/01/09 05:53:15;;;;;;;0.57;0.57;;;-4.50;99.90;;;;;;5246096;28;20322;-72
2022/01/09 05:55:52;;;;;;;0.60;0.60;;;-4.50;99.90;;;;;;5264970;28;20032;-72
2022/01/09 05:58:25;;;;;;;1.90;1.80;;;-4.50;99.90;;;;;;5263640;28;20639;-72
2022/01/09 06:00:56;;;;;;;1.08;1.08;;;-4.50;99.90;;;;;;5255318;28;20280;-72
2022/01/09 06:03:30;;;;;;;0.50;0.50;;;-4.50;99.90;;;;;;5230857;28;20065;-72
2022/01/09 06:06:03;;;;;;;0.50;0.50;;;-4.50;99.90;;;;;;5253101;28;20047;-72
2022/01/09 06:08:39;;;;;;;;;;;-4.40;99.90;;;;;;5265515;28;20039;-72
2022/01/09 06:11:13;;;;;;;0.97;0.97;;;-4.50;99.90;;;;;;5258066;28;19951;-72
2022/01/09 06:13:49;;;;;;;1.05;1.00;;;-4.40;99.90;;;;;;5257181;28;20220;-71
2022/01/09 06:16:27;;;;;;;1.47;1.47;;;-4.40;99.90;;;;;;5256297;28;20324;-71
2022/01/09 06:19:04;;;;;;;0.87;0.87;;;-4.40;99.90;;;;;;5263448;28;20066;-71
2022/01/09 06:21:37;;;;;;;0.87;0.87;;;-4.40;99.90;;;;;;5252452;28;20250;-73
2022/01/09 06:24:11;;;;;;;0.50;0.50;;;-4.40;99.90;;;;;;5278281;28;20032;-73
2022/01/09 06:26:44;;;;;;;0.50;0.50;;;-4.40;99.90;;;;;;5262595;28;20046;-73
2022/01/09 06:29:19;;;;;;;0.50;0.50;;;-4.40;99.90;;;;;;5259106;28;20059;-73
2022/01/09 06:31:52;;;;;;;0.43;0.43;;;-4.30;99.90;;;;;;5255657;28;20044;-73
2022/01/09 06:34:25;;;;;;;1.75;1.65;;;-4.20;99.90;;;;;;5263947;28;20300;-73
2022/01/09 06:36:59;;;;;;;0.50;0.50;;;-4.20;99.90;;;;;;5262279;28;20281;-73
2022/01/09 06:39:33;;;;;;;;;;;-4.10;99.90;;;;;;5260147;28;20032;-73
2022/01/09 06:42:04;;;;;;;1.63;1.53;;;-4.00;99.90;;;;;;5262057;28;19927;-74
2022/01/09 06:44:35;;;;;;;0.40;0.40;;;-4.10;99.90;;;;;;5263941;28;20069;-73
2022/01/09 06:47:14;;;;;;;1.70;1.60;;;-4.00;99.90;;;;;;5229700;28;20249;-73
2022/01/09 06:49:46;;;;;;;0.70;0.70;;;-4.00;99.90;;;;;;5218809;28;20088;-73
2022/01/09 06:52:20;;;;;;;0.50;0.50;;;-4.00;99.90;;;;;;5223696;28;20048;-73
2022/01/09 06:54:50;;;;;;;1.08;1.08;;;-4.00;99.90;;;;;;5216310;28;20088;-72
2022/01/09 06:57:21;;;;;;;2.63;1.57;;;-4.10;99.90;;;;;;5220574;28;20406;-73
2022/01/09 07:00:00;;;;;;;0.40;0.40;;;-4.10;99.90;;;;;;5216311;28;20041;-73
2022/01/09 07:02:31;;;;;;;0.70;0.70;;;-4.10;99.90;;;;;;5220883;28;20033;-72
2022/01/09 07:05:03;;;;;;;0.63;0.63;;;-4.00;99.90;;;;;;5226521;28;20413;-72
2022/01/09 07:07:34;;;;;;;1.10;1.10;;;-3.90;99.90;;;;;;5261915;28;20052;-72
2022/01/09 07:10:06;;;;;;;1.17;1.17;;;-3.80;99.90;;;;;;5264080;28;20154;-72
2022/01/09 07:12:42;;;;;;;1.03;1.03;;;-3.60;99.90;;;;;;5268387;28;20113;-72
2022/01/09 07:15:18;;;;;;;0.87;0.87;;;-3.50;99.90;;;;;;5264671;28;20036;-72
2022/01/09 07:17:51;;;;;;;0.80;0.80;;;-3.40;99.90;;;;;;5257736;28;20024;-73
2022/01/09 07:20:25;;;;;;;1.58;1.48;;;-3.30;99.90;;;;;;5257065;28;20035;-72
2022/01/09 07:22:56;;;;;;;0.50;0.50;;;-3.30;99.90;;;;;;5262261;28;20370;-72
2022/01/09 07:25:28;;;;;;;1.10;1.10;;;-3.30;99.90;;;;;;5262480;28;20036;-72
2022/01/09 07:28:01;;;;;;;0.70;0.70;;;-3.30;99.90;;;;;;5260305;28;20035;-72
2022/01/09 07:30:35;;;;;;;0.53;0.53;;;-3.30;99.90;;;;;;5256421;28;20126;-72
2022/01/09 07:33:11;;;;;;;0.60;0.60;;;-3.30;99.90;;;;;;5279656;28;20032;-72
2022/01/09 07:35:44;;;;;;;1.07;1.07;;;-3.20;99.90;;;;;;5257309;28;20051;-72
2022/01/09 07:38:17;;;;;;;0.80;0.80;;;-3.10;99.90;;;;;;5255279;28;20065;-72
2022/01/09 07:40:53;;;;;;;0.50;0.50;;;-3.00;99.90;;;;;;5254808;28;20028;-73
2022/01/09 07:43:24;;;;;;;0.77;0.77;;;-3.00;99.90;;;;;;5276986;28;20032;-72
2022/01/09 07:46:00;;;;;;;1.00;1.00;;;-2.80;99.90;;;;;;5249639;28;20455;-72
2022/01/09 07:48:31;;;;;;;0.70;0.70;;;-2.60;99.90;;;;;;5242550;28;20040;-72
2022/01/09 07:51:02;;;;;;;1.87;1.77;;;-2.50;99.90;;;;;;5258556;28;20109;-72
2022/01/09 07:53:33;;;;;;;3.50;2.00;;;-2.60;99.90;;;;;;5260138;28;20303;-72
2022/01/09 07:56:06;;;;;;;0.57;0.57;;;-2.60;99.90;;;;;;5247061;28;20074;-72
2022/01/09 07:58:43;;;;;;;0.95;0.95;;;-2.60;99.90;;;;;;5259049;28;20063;-73
2022/01/09 08:01:17;;;;;;;0.53;0.53;;;-2.60;99.90;;;;;;5252295;28;20380;-73
2022/01/09 08:03:48;;;;;;;0.68;0.68;;;-2.70;99.90;;;;;;5259097;28;20056;-73
2022/01/09 08:06:18;;;;;;;0.57;0.57;;;-2.50;99.90;;;;;;5252242;28;20123;-72
2022/01/09 08:08:49;;;;;;;1.37;1.37;;;-2.40;99.90;;;;;;5260489;28;20035;-72
2022/01/09 08:11:22;;;;;;;0.80;0.80;;;-2.50;99.90;;;;;;5259940;28;20028;-73
2022/01/09 08:13:55;;;;;;;0.60;0.60;;;-2.50;99.90;;;;;;5251587;28;20321;-73
2022/01/09 08:16:26;;;;;;;0.70;0.70;;;-2.30;99.90;;;;;;5264905;28;20040;-72
2022/01/09 08:19:01;;;;;;;0.67;0.67;;;-2.10;99.90;;;;;;5258350;28;20075;-73
2022/01/09 08:21:35;;;;;;;0.60;0.60;;;-2.00;99.90;;;;;;5261173;28;20031;-75
2022/01/09 08:24:10;;;;;;;0.67;0.67;;;-1.80;99.90;;;;;;5258515;28;20032;-73
2022/01/09 08:26:46;;;;;;;2.10;2.00;;;-1.70;99.90;;;;;;5259445;28;20042;-73
2022/01/09 08:29:25;;;;;;;0.70;0.70;;;-1.60;99.90;;;;;;5259789;28;20081;-74
2022/01/09 08:31:59;;;;;;;1.73;1.63;;;-1.60;99.90;;;;;;5259870;28;20044;-73
2022/01/09 08:34:32;;;;;;;0.43;0.43;;;-1.60;99.90;;;;;;5259522;28;20224;-73
2022/01/09 08:37:12;;;;;;;0.40;0.40;;;-1.70;99.90;;;;;;5257690;28;20040;-73
2022/01/09 08:39:44;;;;;;;0.53;0.53;;;-1.70;99.90;;;;;;5257244;28;20633;-73
2022/01/09 08:42:20;;;;;;;1.33;1.33;;;-1.50;99.90;;;;;;5239066;28;20109;-73
2022/01/09 08:44:53;;;;;;;1.27;1.27;;;-1.40;99.90;;;;;;5254908;28;20079;-74
2022/01/09 08:47:27;;;;;;;0.65;0.65;;;-1.50;99.90;;;;;;5276024;28;20066;-73
2022/01/09 08:50:04;;;;;;;0.50;0.50;;;-1.40;99.90;;;;;;5277022;28;20038;-73
2022/01/09 08:52:39;;;;;;;0.60;0.60;;;-1.60;99.90;;;;;;5243680;28;20031;-73
2022/01/09 08:55:13;;;;;;;0.67;0.67;;;-1.40;99.90;;;;;;5251471;28;20555;-73
2022/01/09 08:57:44;;;;;;;1.52;1.52;;;-1.30;99.90;;;;;;5279311;28;20452;-72
2022/01/09 09:00:20;;;;;;;0.50;0.50;;;-1.20;99.90;;;;;;5285431;28;20030;-73
2022/01/09 09:02:51;;;;;;;0.60;0.60;;;-1.10;99.90;;;;;;5269044;28;20043;-72
2022/01/09 09:05:24;;;;;;;0.80;0.80;;;-1.10;99.90;;;;;;5261461;28;20060;-73
2022/01/09 09:07:59;;;;;;;0.70;0.70;;;-1.00;99.90;;;;;;5262097;28;20020;-72
2022/01/09 09:10:30;;;;;;;1.40;1.40;;;-0.80;99.90;;;;;;5262356;28;20024;-72
2022/01/09 09:13:01;;;;;;;0.32;0.32;;;-0.90;99.90;;;;;;5248363;28;20535;-74
2022/01/09 09:15:37;;;;;;;0.55;0.55;;;-0.90;99.90;;;;;;5245210;28;20032;-73
2022/01/09 09:18:13;;;;;;;0.82;0.82;;;-0.80;99.90;;;;;;5241307;28;20081;-73
2022/01/09 09:20:44;;;;;;;1.10;1.05;;;-0.70;99.90;;;;;;5266087;28;20108;-73
2022/01/09 09:23:15;;;;;;;0.70;0.70;;;-0.60;99.90;;;;;;5256448;28;20067;-73
2022/01/09 09:25:52;;;;;;;0.50;0.50;;;-0.60;99.90;;;;;;5227947;28;20056;-73
2022/01/09 09:28:26;;;;;;;0.60;0.60;;;-0.40;99.90;;;;;;5260711;28;20040;-73
2022/01/09 09:30:59;;;;;;;0.90;0.90;;;-0.90;99.90;;;;;;5224643;28;20032;-74
2022/01/09 09:33:32;;;;;;;0.63;0.63;;;-0.80;99.90;;;;;;5243625;28;20115;-73
2022/01/09 09:36:07;;;;;;;2.50;1.60;;;-0.80;99.90;;;;;;5258257;28;20466;-74
2022/01/09 09:38:41;;;;;;;1.25;1.25;;;-0.90;99.90;;;;;;5259612;28;20452;-73
2022/01/09 09:41:13;;;;;;;0.88;0.88;;;-0.70;99.90;;;;;;5262095;28;20081;-74
2022/01/09 09:43:44;;;;;;;1.58;1.50;;;-0.50;99.90;;;;;;5228802;28;20039;-74
2022/01/09 09:46:15;;;;;;;0.68;0.68;;;-0.20;99.90;;;;;;5227727;28;20039;-74
2022/01/09 09:48:47;;;;;;;0.40;0.40;;;-0.10;99.90;;;;;;5240912;28;20250;-74
2022/01/09 09:51:20;;;;;;;2.15;2.03;;;-0.30;99.90;;;;;;5234259;28;20039;-73
2022/01/09 09:53:56;;;;;;;1.05;1.05;;;-0.40;99.90;;;;;;5255527;28;20053;-74
2022/01/09 09:56:27;;;;;;;0.90;0.90;;;-0.50;99.90;;;;;;5242038;28;20429;-74
2022/01/09 09:58:59;;;;;;;1.10;1.10;;;-0.30;99.90;;;;;;5239822;28;20043;-75
2022/01/09 10:01:38;;;;;;;1.05;1.05;;;-0.30;99.90;;;;;;5240018;28;20032;-74
2022/01/09 10:04:09;;;;;;;0.93;0.93;;;-0.20;99.90;;;;;;5237818;27;20036;-77
2022/01/09 10:06:42;;;;;;;0.63;0.63;;;-0.20;99.90;;;;;;5287598;27;20185;-76
2022/01/09 10:09:20;;;;;;;0.70;0.70;;;-0.10;99.90;;;;;;5241020;28;20070;-76
2022/01/09 10:11:56;;;;;;;0.70;0.70;;;-0.20;99.90;;;;;;5262993;28;20103;-75
2022/01/09 10:14:34;;;;;;;0.60;0.60;;;-0.20;99.90;;;;;;5258264;28;20040;-77
2022/01/09 10:17:10;;;;;;;0.98;0.98;;;-0.10;99.90;;;;;;5245275;28;20383;-76
2022/01/09 10:19:45;;;;;;;0.50;0.50;;;0.00;99.90;;;;;;5258078;28;20098;-75
2022/01/09 10:22:37;;;;;;;0.88;0.88;;;-0.10;99.90;;;;;;5259867;28;20065;-77
2022/01/09 10:25:36;;;;;;;0.70;0.70;;;0.20;99.90;;;;;;5257107;28;20276;-77
2022/01/09 10:28:21;;;;;;;1.80;1.70;;;0.50;99.90;;;;;;5214236;28;20342;-79
2022/01/09 10:30:52;;;;;;;0.65;0.65;;;0.40;99.90;;;;;;5256402;28;20094;-77
2022/01/09 10:33:37;;;;;;;0.80;0.80;;;0.60;99.90;;;;;;5257578;28;20350;-77
2022/01/09 10:36:09;;;;;;;2.88;2.67;;;0.70;99.90;;;;;;5258034;28;20031;-78
2022/01/09 10:38:49;;;;;;;0.77;0.77;;;0.90;99.90;;;;;;5257863;28;20457;-79
2022/01/09 10:41:23;;;;;;;0.98;0.98;;;1.00;99.90;;;;;;5258493;28;20352;-80
2022/01/09 10:44:02;;;;;;;2.97;1.83;;;1.00;99.90;;;;;;5257520;28;20192;-79
2022/01/09 10:46:36;;;;;;;1.10;1.10;;;1.00;99.90;;;;;;5258419;28;20257;-77
2022/01/09 10:49:07;;;;;;;0.40;0.40;;;1.20;99.90;;;;;;5272098;27;20305;-77
2022/01/09 10:51:43;;;;;;;2.15;2.05;;;1.40;99.90;;;;;;5257802;28;20039;-76
2022/01/09 10:54:35;;;;;;;0.73;0.73;;;1.20;99.90;;;;;;5291399;27;20293;-77
2022/01/09 10:57:21;;;;;;;0.90;0.90;;;1.30;99.90;;;;;;5260097;28;20469;-76
2022/01/09 10:59:52;;;;;;;1.08;1.08;;;1.60;99.90;;;;;;5257418;28;20051;-77
2022/01/09 11:02:23;;;;;;;1.48;1.48;;;1.70;99.90;;;;;;5291078;27;20035;-76
2022/01/09 11:04:54;;;;;;;0.65;0.65;;;1.40;99.90;;;;;;5260472;27;20050;-76
2022/01/09 11:07:27;;;;;;;1.25;1.25;;;1.50;99.90;;;;;;5277342;27;20605;-76
2022/01/09 11:09:59;;;;;;;1.45;1.45;;;1.10;99.90;;;;;;5257307;28;20039;-75
2022/01/09 11:12:45;;;;;;;0.73;0.73;;;1.00;99.90;;;;;;5260148;28;20067;-76
2022/01/09 11:15:22;;;;;;;1.45;1.45;;;1.10;99.90;;;;;;5233139;28;20059;-74
2022/01/09 11:18:01;;;;;;;0.93;0.93;;;1.40;99.90;;;;;;5269144;28;20119;-73
2022/01/09 11:20:31;;;;;;;0.82;0.82;;;1.60;99.90;;;;;;5257566;28;20055;-74
2022/01/09 11:23:07;;;;;;;0.85;0.85;;;1.80;99.90;;;;;;5274707;28;20032;-73
2022/01/09 11:25:42;;;;;;;1.52;1.42;;;1.70;99.90;;;;;;5257354;28;20125;-74
2022/01/09 11:28:38;;;;;;;1.73;1.63;;;1.60;99.90;;;;;;5249986;28;20100;-74
2022/01/09 11:31:28;;;;;;;0.50;0.50;;;1.90;99.90;;;;;;5257704;28;20215;-73
2022/01/09 11:34:17;;;;;;;0.60;0.60;;;2.00;99.90;;;;;;5242106;28;20077;-74
2022/01/09 11:37:19;;;;;;;1.02;1.02;;;2.20;99.90;;;;;;5274818;27;20261;-73
2022/01/09 11:39:51;;;;;;;3.08;2.17;;;2.20;99.90;;;;;;5256175;28;20254;-74
2022/01/09 11:42:22;;;;;;;0.63;0.63;;;2.10;99.90;;;;;;5244455;28;20138;-73
2022/01/09 11:44:59;;;;;;;0.93;0.93;;;2.40;99.90;;;;;;5234222;28;20532;-73
2022/01/09 11:47:51;;;;;;;1.02;1.02;;;2.80;99.90;;;;;;5289274;27;20167;-74
2022/01/09 11:50:22;;;;;;;1.17;1.17;;;2.90;99.90;;;;;;5249315;28;20099;-73
2022/01/09 11:53:00;;;;;;;0.68;0.68;;;2.80;99.90;;;;;;5256849;28;20070;-73
2022/01/09 11:55:52;;;;;;;0.40;0.40;;;2.90;99.90;;;;;;5255706;28;20040;-73
2022/01/09 11:58:23;;;;;;;2.05;1.92;;;2.60;99.90;;;;;;5250615;28;20020;-74
2022/01/09 12:00:57;;;;;;;1.48;1.38;;;2.60;99.90;;;;;;5255384;28;20035;-73
2022/01/09 12:03:28;;;;;;;1.20;1.20;;;2.60;99.90;;;;;;5256449;28;20047;-73
2022/01/09 12:06:16;;;;;;;2.08;2.00;;;2.60;99.90;;;;;;5276207;27;20177;-73
2022/01/09 12:09:08;;;;;;;1.17;1.15;;;2.90;99.90;;;;;;5257720;28;20297;-75
2022/01/09 12:12:13;;;;;;;1.20;1.20;;;3.10;99.90;;;;;;5219253;28;20610;-74
2022/01/09 12:14:54;;;;;;;1.85;1.75;;;3.40;99.90;;;;;;5253218;28;20190;-74
2022/01/09 12:17:28;;;;;;;1.17;1.17;;;3.80;99.90;;;;;;5252036;28;20040;-74
2022/01/09 12:20:14;;;;;;;1.10;1.10;;;3.70;99.90;;;;;;5257531;28;20058;-75
2022/01/09 12:25:22;;;;;;;1.08;1.08;;;4.20;99.90;;;;;;5258317;28;20036;-76
2022/01/09 12:28:18;;;;;;;0.93;0.93;;;4.50;99.90;;;;;;5262187;28;20051;-74
2022/01/09 12:31:02;;;;;;;0.82;0.82;;;4.60;99.90;;;;;;5234707;28;20413;-74
2022/01/09 12:33:34;;;;;;;1.02;1.02;;;4.10;99.90;;;;;;5251851;28;20100;-75
2022/01/09 12:36:18;;;;;;;1.35;1.35;;;4.20;99.90;;;;;;5270896;28;20044;-77
2022/01/09 12:38:57;;;;;;;2.75;2.60;;;4.00;99.90;;;;;;5255679;28;20035;-74
2022/01/09 12:41:33;;;;;;;2.88;2.33;;;3.90;99.90;;;;;;5254178;28;20047;-76
2022/01/09 12:44:08;;;;;;;1.02;1.02;;;3.90;99.90;;;;;;5255591;28;20040;-75
2022/01/09 12:46:41;;;;;;;2.30;2.20;;;4.00;99.90;;;;;;5259086;28;20048;-74
2022/01/09 12:49:15;;;;;;;0.98;0.98;;;3.50;99.90;;;;;;5233542;28;20369;-75
2022/01/09 12:51:53;;;;;;;0.85;0.85;;;3.30;99.90;;;;;;5228164;28;20036;-74
2022/01/09 12:54:37;;;;;;;1.25;1.25;;;3.20;99.90;;;;;;5234664;28;20036;-74
2022/01/09 12:57:14;;;;;;;1.50;1.40;;;3.10;99.90;;;;;;5235714;28;20285;-75
2022/01/09 12:59:44;;;;;;;0.75;0.75;;;3.00;99.90;;;;;;5253966;28;20055;-75
2022/01/09 13:02:15;;;;;;;0.80;0.80;;;2.90;99.90;;;;;;5235610;28;20207;-74
2022/01/09 13:04:57;;;;;;;1.75;1.65;;;3.00;99.90;;;;;;5233541;28;20061;-73
2022/01/09 13:07:35;;;;;;;0.98;0.93;;;2.50;99.90;;;;;;5267921;28;20040;-74
2022/01/09 13:10:15;;;;;;;1.40;1.40;;;2.50;99.90;;;;;;5237709;28;20219;-74
2022/01/09 13:13:11;;;;;;;2.03;1.88;;;2.50;99.90;;;;;;5252976;28;20103;-74
2022/01/09 13:15:42;;;;;;;2.00;1.90;;;2.30;99.90;;;;;;5256791;28;20042;-73
2022/01/09 13:18:15;;;;;;;1.15;1.15;;;1.90;99.90;;;;;;5238469;28;20199;-75
2022/01/09 13:20:59;;;;;;;1.00;1.00;;;1.80;99.90;;;;;;5257303;28;20048;-75
2022/01/09 13:23:30;;;;;;;0.45;0.45;;;1.80;99.90;;;;;;5254839;28;20296;-73
2022/01/09 13:26:01;;;;;;;1.98;1.55;;;1.80;99.90;;;;;;5273683;28;20039;-73
2022/01/09 13:28:32;;;;;;;0.70;0.70;;;1.80;99.90;;;;;;5255542;28;20261;-73
2022/01/09 13:31:05;;;;;;;1.73;1.63;;;1.80;99.90;;;;;;5251430;28;20256;-73
2022/01/09 13:34:04;;;;;;;0.93;0.93;;;1.70;99.90;;;;;;5253357;28;20454;-73
2022/01/09 13:36:48;;;;;;;1.08;1.08;;;1.70;99.90;;;;;;5256304;28;20070;-73
2022/01/09 13:39:22;;;;;;;1.05;1.00;;;1.60;99.90;;;;;;5257071;28;20044;-73